createdAt,value
2018-12-03T00:01:34.438Z,10.80
2018-12-03T00:04:08.330Z,10.80
2018-12-03T00:06:36.085Z,10.80
2018-12-03T00:09:06.901Z,10.80
2018-12-03T00:11:35.233Z,10.80
2018-12-03T00:14:02.788Z,10.90
2018-12-03T00:16:30.521Z,10.90
2018-12-03T00:18:58.151Z,10.90
2018-12-03T00:21:25.865Z,11.00
2018-12-03T00:23:53.540Z,11.00
2018-12-03T00:26:22.098Z,11.00
2018-12-03T00:28:49.911Z,11.00
2018-12-03T00:31:17.592Z,11.00
2018-12-03T00:33:45.308Z,11.10
2018-12-03T00:36:13.030Z,11.20
2018-12-03T00:38:40.588Z,11.30
2018-12-03T00:41:08.175Z,11.10
2018-12-03T00:43:36.300Z,11.20
2018-12-03T00:46:03.982Z,11.20
2018-12-03T00:48:31.632Z,11.10
2018-12-03T00:50:59.308Z,11.00
2018-12-03T00:53:26.863Z,10.90
2018-12-03T00:55:54.464Z,11.00
2018-12-03T00:58:22.069Z,11.00
2018-12-03T01:00:49.692Z,11.00
2018-12-03T01:03:17.626Z,10.90
2018-12-03T01:05:45.203Z,10.90
2018-12-03T01:08:12.993Z,10.80
2018-12-03T01:10:40.749Z,10.70
2018-12-03T01:13:08.357Z,10.70
2018-12-03T01:15:36.001Z,10.70
2018-12-03T01:18:03.669Z,10.70
2018-12-03T01:20:31.340Z,10.70
2018-12-03T01:22:58.929Z,10.80
2018-12-03T01:25:26.493Z,10.80
2018-12-03T01:27:54.028Z,10.80
2018-12-03T01:30:21.546Z,10.80
2018-12-03T01:32:49.148Z,10.80
2018-12-03T01:35:16.688Z,10.80
2018-12-03T01:37:44.238Z,10.80
2018-12-03T01:40:12.239Z,10.90
2018-12-03T01:42:40.219Z,10.90
2018-12-03T01:45:09.572Z,10.80
2018-12-03T01:47:37.426Z,10.80
2018-12-03T01:50:13.601Z,10.80
2018-12-03T01:52:41.535Z,10.90
2018-12-03T01:55:10.015Z,10.90
2018-12-03T01:57:37.959Z,10.90
2018-12-03T02:00:09.592Z,11.00
2018-12-03T02:02:37.301Z,11.00
2018-12-03T02:05:05.531Z,11.00
2018-12-03T02:07:33.119Z,11.00
2018-12-03T02:10:00.651Z,11.00
2018-12-03T02:12:29.115Z,11.00
2018-12-03T02:14:57.192Z,11.10
2018-12-03T02:17:25.779Z,11.00
2018-12-03T02:19:54.160Z,11.00
2018-12-03T02:22:27.305Z,11.00
2018-12-03T02:24:54.940Z,11.10
2018-12-03T02:27:22.702Z,11.10
2018-12-03T02:29:50.251Z,11.10
2018-12-03T02:32:17.795Z,11.10
2018-12-03T02:34:45.604Z,11.10
2018-12-03T02:37:13.081Z,11.10
2018-12-03T02:39:40.925Z,11.10
2018-12-03T02:42:08.508Z,11.10
2018-12-03T02:44:36.151Z,11.10
2018-12-03T02:47:03.721Z,11.00
2018-12-03T02:49:31.486Z,11.10
2018-12-03T02:51:58.991Z,11.10
2018-12-03T02:54:26.510Z,11.20
2018-12-03T02:56:54.560Z,11.30
2018-12-03T02:59:22.067Z,11.30
2018-12-03T03:01:49.621Z,11.20
2018-12-03T03:04:17.202Z,11.20
2018-12-03T03:06:44.704Z,11.10
2018-12-03T03:09:12.228Z,11.10
2018-12-03T03:11:39.766Z,11.00
2018-12-03T03:14:07.266Z,11.00
2018-12-03T03:16:34.888Z,11.00
2018-12-03T03:19:02.430Z,11.00
2018-12-03T03:21:29.975Z,11.00
2018-12-03T03:23:57.553Z,11.00
2018-12-03T03:26:25.207Z,11.00
2018-12-03T03:28:52.922Z,11.00
2018-12-03T03:31:20.578Z,11.00
2018-12-03T03:33:48.303Z,11.00
2018-12-03T03:36:15.939Z,10.90
2018-12-03T03:38:43.462Z,11.00
2018-12-03T03:41:10.998Z,11.00
2018-12-03T03:43:38.529Z,11.10
2018-12-03T03:46:07.132Z,11.00
2018-12-03T03:48:34.884Z,11.00
2018-12-03T03:51:02.924Z,10.90
2018-12-03T03:53:30.449Z,11.10
2018-12-03T03:55:57.986Z,11.20
2018-12-03T03:58:25.497Z,11.10
2018-12-03T04:00:53.242Z,11.20
2018-12-03T04:03:20.803Z,11.10
2018-12-03T04:05:48.386Z,11.00
2018-12-03T04:08:15.921Z,11.00
2018-12-03T04:10:44.044Z,11.00
2018-12-03T04:13:11.575Z,11.00
2018-12-03T04:15:39.920Z,11.00
2018-12-03T04:18:07.566Z,11.00
2018-12-03T04:20:36.357Z,10.90
2018-12-03T04:23:04.119Z,10.80
2018-12-03T04:25:31.792Z,10.80
2018-12-03T04:27:59.402Z,10.70
2018-12-03T04:30:26.990Z,10.70
2018-12-03T04:32:55.343Z,10.60
2018-12-03T04:35:24.220Z,10.60
2018-12-03T04:37:51.770Z,10.60
2018-12-03T04:40:19.943Z,10.70
2018-12-03T04:42:47.585Z,10.60
2018-12-03T04:45:16.476Z,10.60
2018-12-03T04:47:45.680Z,10.60
2018-12-03T04:50:14.688Z,10.50
2018-12-03T04:52:42.242Z,10.40
2018-12-03T04:55:10.381Z,10.40
2018-12-03T04:57:37.944Z,10.50
2018-12-03T05:00:15.247Z,10.50
2018-12-03T05:02:43.335Z,10.50
2018-12-03T05:05:11.277Z,10.40
2018-12-03T05:07:38.879Z,10.50
2018-12-03T05:10:10.219Z,10.40
2018-12-03T05:12:38.057Z,10.30
2018-12-03T05:15:08.123Z,10.40
2018-12-03T05:17:36.255Z,10.30
2018-12-03T05:20:06.348Z,10.20
2018-12-03T05:22:34.235Z,10.10
2018-12-03T05:25:01.822Z,10.00
2018-12-03T05:27:29.328Z,10.00
2018-12-03T05:29:57.015Z,9.90
2018-12-03T05:32:24.529Z,9.90
2018-12-03T05:37:39.505Z,9.90
2018-12-03T05:40:12.507Z,10.00
2018-12-03T05:42:40.091Z,10.10
2018-12-03T05:45:10.467Z,10.10
2018-12-03T05:47:38.044Z,10.10
2018-12-03T05:50:08.961Z,10.10
2018-12-03T05:52:38.856Z,10.00
2018-12-03T05:55:08.588Z,10.10
2018-12-03T05:57:36.449Z,10.20
2018-12-03T06:00:22.358Z,10.30
2018-12-03T06:02:50.439Z,10.30
2018-12-03T06:05:18.502Z,10.40
2018-12-03T06:07:46.519Z,10.40
2018-12-03T06:10:16.734Z,10.50
2018-12-03T06:12:44.952Z,10.60
2018-12-03T06:15:15.430Z,10.60
2018-12-03T06:17:43.303Z,10.70
2018-12-03T06:20:16.683Z,10.70
2018-12-03T06:22:45.407Z,10.70
2018-12-03T06:25:15.851Z,10.60
2018-12-03T06:27:44.096Z,10.70
2018-12-03T06:30:15.568Z,10.80
2018-12-03T06:32:44.647Z,10.80
2018-12-03T06:35:14.251Z,10.80
2018-12-03T06:37:42.299Z,10.80
2018-12-03T06:40:13.722Z,10.90
2018-12-03T06:42:42.054Z,10.80
2018-12-03T06:45:11.632Z,11.00
2018-12-03T06:47:42.138Z,10.80
2018-12-03T06:50:10.379Z,10.80
2018-12-03T06:52:38.578Z,10.90
2018-12-03T06:55:09.166Z,10.90
2018-12-03T06:57:37.759Z,11.00
2018-12-03T07:00:10.862Z,11.10
2018-12-03T07:02:38.880Z,11.10
2018-12-03T07:05:08.106Z,11.10
2018-12-03T07:07:35.990Z,11.00
2018-12-03T07:10:05.737Z,11.10
2018-12-03T07:12:33.640Z,11.00
2018-12-03T07:15:01.571Z,11.00
2018-12-03T07:17:29.591Z,11.00
2018-12-03T07:19:57.521Z,10.90
2018-12-03T07:22:25.315Z,11.00
2018-12-03T07:24:53.124Z,11.00
2018-12-03T07:27:21.146Z,11.20
2018-12-03T07:29:52.932Z,11.10
2018-12-03T07:32:16.901Z,11.10
2018-12-03T07:34:44.790Z,11.10
2018-12-03T07:37:12.611Z,11.20
2018-12-03T07:39:40.702Z,11.20
2018-12-03T07:42:08.738Z,11.20
2018-12-03T07:44:37.266Z,11.30
2018-12-03T07:47:05.071Z,11.40
2018-12-03T07:49:33.290Z,11.30
2018-12-03T07:52:01.278Z,11.20
2018-12-03T07:54:29.315Z,11.30
2018-12-03T07:56:57.471Z,11.20
2018-12-03T07:59:25.522Z,11.40
2018-12-03T08:01:53.875Z,11.50
2018-12-03T08:04:21.995Z,11.40
2018-12-03T08:06:50.158Z,11.40
2018-12-03T08:09:18.493Z,11.50
2018-12-03T08:11:46.550Z,11.50
2018-12-03T08:14:14.765Z,11.40
2018-12-03T08:20:14.187Z,11.30
2018-12-03T08:22:53.964Z,11.30
2018-12-03T08:25:26.412Z,11.40
2018-12-03T08:28:16.430Z,11.40
2018-12-03T08:31:04.557Z,11.40
2018-12-03T08:33:51.729Z,11.30
2018-12-03T08:36:23.639Z,11.30
2018-12-03T08:38:59.291Z,11.20
2018-12-03T08:44:32.025Z,11.10
2018-12-03T08:47:09.263Z,11.10
2018-12-03T08:49:50.126Z,11.00
2018-12-03T08:52:36.401Z,11.00
2018-12-03T08:58:10.186Z,11.10
2018-12-03T09:00:43.821Z,11.20
2018-12-03T09:03:18.969Z,11.30
2018-12-03T09:05:50.624Z,11.20
2018-12-03T09:08:30.682Z,11.10
2018-12-03T09:11:21.715Z,11.20
2018-12-03T09:14:11.496Z,11.10
2018-12-03T09:17:03.249Z,11.20
2018-12-03T09:19:48.378Z,11.20
2018-12-03T09:22:26.066Z,11.20
2018-12-03T09:25:00.073Z,11.30
2018-12-03T09:27:31.848Z,11.30
2018-12-03T09:30:12.643Z,11.40
2018-12-03T09:32:45.866Z,11.50
2018-12-03T09:35:16.210Z,11.50
2018-12-03T09:37:53.108Z,11.70
2018-12-03T09:40:42.243Z,11.60
2018-12-03T09:43:24.740Z,11.80
2018-12-03T09:45:57.054Z,11.90
2018-12-03T09:48:38.646Z,11.90
2018-12-03T09:51:17.426Z,11.80
2018-12-03T09:54:04.552Z,11.70
2018-12-03T09:56:39.504Z,11.60
2018-12-03T09:59:21.113Z,11.40
2018-12-03T10:02:01.404Z,11.30
2018-12-03T10:04:41.419Z,11.30
2018-12-03T10:07:18.235Z,11.40
2018-12-03T10:09:48.842Z,11.40
2018-12-03T10:12:30.507Z,11.40
2018-12-03T10:18:03.640Z,11.40
2018-12-03T10:20:35.721Z,11.50
2018-12-03T10:23:16.341Z,11.70
2018-12-03T10:25:56.890Z,11.80
2018-12-03T10:28:43.120Z,11.90
2018-12-03T10:31:25.794Z,12.20
2018-12-03T10:34:08.309Z,12.20
2018-12-03T10:36:48.515Z,12.30
2018-12-03T10:39:35.784Z,12.50
2018-12-03T10:42:10.071Z,12.50
2018-12-03T10:44:48.609Z,12.60
2018-12-03T10:47:20.342Z,12.60
2018-12-03T10:49:51.905Z,12.60
2018-12-03T10:52:24.057Z,12.50
2018-12-03T10:54:53.911Z,12.40
2018-12-03T10:57:28.328Z,12.50
2018-12-03T11:00:02.668Z,12.50
2018-12-03T11:02:53.201Z,12.40
2018-12-03T11:05:37.486Z,12.30
2018-12-03T11:08:21.400Z,12.30
2018-12-03T11:11:02.184Z,12.30
2018-12-03T11:13:40.961Z,12.40
2018-12-03T11:16:27.257Z,12.40
2018-12-03T11:24:36.245Z,12.70
2018-12-03T11:27:08.707Z,12.60
2018-12-03T11:29:48.971Z,12.70
2018-12-03T11:32:27.287Z,12.70
2018-12-03T11:34:58.701Z,12.50
2018-12-03T11:40:42.469Z,12.40
2018-12-03T11:43:15.988Z,12.40
2018-12-03T11:45:50.060Z,12.40
2018-12-03T11:48:28.312Z,12.30
2018-12-03T11:53:55.380Z,12.30
2018-12-03T11:56:27.014Z,12.40
2018-12-03T11:58:58.796Z,12.30
2018-12-03T12:04:24.954Z,12.20
2018-12-03T12:07:05.477Z,12.30
2018-12-03T12:09:52.330Z,12.40
2018-12-03T12:12:31.387Z,12.50
2018-12-03T12:15:16.370Z,12.40
2018-12-03T12:17:57.256Z,12.50
2018-12-03T12:20:35.911Z,12.50
2018-12-03T12:23:07.475Z,12.40
2018-12-03T12:25:46.354Z,12.40
2018-12-03T12:28:38.062Z,12.30
2018-12-03T12:31:15.763Z,12.20
2018-12-03T12:33:56.319Z,12.20
2018-12-03T12:36:27.124Z,12.20
2018-12-03T12:38:58.137Z,12.20
2018-12-03T12:41:46.682Z,12.10
2018-12-03T12:44:16.167Z,12.10
2018-12-03T12:46:49.263Z,12.10
2018-12-03T12:49:20.438Z,12.20
2018-12-03T12:51:51.834Z,12.20
2018-12-03T12:54:38.975Z,12.20
2018-12-03T12:57:10.946Z,12.10
2018-12-03T12:59:42.411Z,12.10
2018-12-03T13:02:22.831Z,12.10
2018-12-03T13:05:02.731Z,12.20
2018-12-03T13:07:34.289Z,12.30
2018-12-03T13:10:14.327Z,12.20
2018-12-03T13:15:50.908Z,12.10
2018-12-03T13:18:39.917Z,12.10
2018-12-03T13:21:11.662Z,12.10
2018-12-03T13:23:52.280Z,12.10
2018-12-03T13:29:31.116Z,12.00
2018-12-03T13:32:00.781Z,12.00
2018-12-03T13:34:40.612Z,12.00
2018-12-03T13:37:11.740Z,11.90
2018-12-03T13:39:43.146Z,11.90
2018-12-03T13:42:22.993Z,11.90
2018-12-03T13:47:53.417Z,11.80
2018-12-03T13:50:24.410Z,11.80
2018-12-03T13:53:06.309Z,11.80
2018-12-03T13:55:37.971Z,11.70
2018-12-03T13:58:11.837Z,12.00
2018-12-03T14:00:45.334Z,11.90
2018-12-03T14:03:23.877Z,11.90
2018-12-03T14:06:03.117Z,12.00
2018-12-03T14:08:43.175Z,12.00
2018-12-03T14:11:23.068Z,12.00
2018-12-03T14:14:02.940Z,11.80
2018-12-03T14:16:44.993Z,11.80
2018-12-03T14:19:20.863Z,11.70
2018-12-03T14:22:10.228Z,11.70
2018-12-03T14:24:50.108Z,11.60
2018-12-03T14:27:21.328Z,11.50
2018-12-03T14:30:02.338Z,11.50
2018-12-03T14:32:42.665Z,11.40
2018-12-03T14:35:14.111Z,11.30
2018-12-03T14:37:52.084Z,11.20
2018-12-03T14:40:36.548Z,11.20
2018-12-03T14:43:16.533Z,11.40
2018-12-03T14:45:47.778Z,11.30
2018-12-03T14:48:27.521Z,11.30
2018-12-03T14:51:10.336Z,11.30
2018-12-03T14:53:42.158Z,11.10
2018-12-03T14:56:13.311Z,11.20
2018-12-03T14:58:43.010Z,11.30
2018-12-03T15:01:22.971Z,11.10
2018-12-03T15:04:08.476Z,11.00
2018-12-03T15:06:48.891Z,11.10
2018-12-03T15:09:22.290Z,11.00
2018-12-03T15:12:02.815Z,11.00
2018-12-03T15:14:51.116Z,11.00
2018-12-03T15:17:30.994Z,10.90
2018-12-03T15:20:05.272Z,10.70
2018-12-03T15:22:55.502Z,10.70
2018-12-03T15:25:25.084Z,10.70
2018-12-03T15:28:05.182Z,10.60
2018-12-03T15:30:53.536Z,10.60
2018-12-03T15:33:41.578Z,10.60
2018-12-03T15:36:32.555Z,10.60
2018-12-03T15:39:12.105Z,10.60
2018-12-03T15:41:45.791Z,10.50
2018-12-03T15:50:33.362Z,10.50
2018-12-03T15:56:10.400Z,10.50
2018-12-03T15:58:42.036Z,10.50
2018-12-03T16:01:30.235Z,10.40
2018-12-03T16:04:10.615Z,10.40
2018-12-03T16:11:51.265Z,10.30
2018-12-03T16:14:31.671Z,10.30
2018-12-03T16:17:11.471Z,10.30
2018-12-03T16:19:52.505Z,10.30
2018-12-03T16:25:41.850Z,10.40
2018-12-03T16:28:13.256Z,10.30
2018-12-03T16:30:55.189Z,10.30
2018-12-03T16:36:53.929Z,10.30
2018-12-03T16:39:25.644Z,10.30
2018-12-03T16:42:13.978Z,10.30
2018-12-03T16:44:54.333Z,10.30
2018-12-03T16:47:23.561Z,10.40
2018-12-03T16:50:03.525Z,10.40
2018-12-03T16:52:37.124Z,10.50
2018-12-03T16:55:11.073Z,10.60
2018-12-03T16:57:50.694Z,10.50
2018-12-03T17:00:30.931Z,10.60
2018-12-03T17:03:11.855Z,10.60
2018-12-03T17:05:43.113Z,10.60
2018-12-03T17:08:23.254Z,10.70
2018-12-03T17:13:34.967Z,10.90
2018-12-03T17:16:06.671Z,10.90
2018-12-03T17:18:46.521Z,10.90
2018-12-03T17:21:37.077Z,10.80
2018-12-03T17:24:22.105Z,10.90
2018-12-03T17:26:53.708Z,10.90
2018-12-03T17:29:42.349Z,10.90
2018-12-03T17:35:09.432Z,11.10
2018-12-03T17:40:48.615Z,11.00
2018-12-03T17:43:29.113Z,10.90
2018-12-03T17:46:09.284Z,11.10
2018-12-03T17:48:42.956Z,11.10
2018-12-03T17:51:23.055Z,11.00
2018-12-03T17:54:06.995Z,11.00
2018-12-03T17:56:38.469Z,11.00
2018-12-03T17:59:19.067Z,10.90
2018-12-03T18:02:07.253Z,10.90
2018-12-03T18:07:56.234Z,10.90
2018-12-03T18:10:34.243Z,10.80
2018-12-03T18:13:08.061Z,10.80
2018-12-03T18:15:42.130Z,10.80
2018-12-03T18:18:14.383Z,10.80
2018-12-03T18:21:03.018Z,10.70
2018-12-03T18:23:43.430Z,10.80
2018-12-03T18:26:14.606Z,10.90
2018-12-03T18:31:51.134Z,10.90
2018-12-03T18:37:32.007Z,10.80
2018-12-03T18:40:12.192Z,10.90
2018-12-03T18:43:02.865Z,10.90
2018-12-03T18:45:34.422Z,10.70
2018-12-03T18:51:17.351Z,10.70
2018-12-03T18:53:52.040Z,10.70
2018-12-03T18:56:39.938Z,10.80
2018-12-03T18:59:13.937Z,10.70
2018-12-03T19:01:59.707Z,10.70
2018-12-03T19:04:31.396Z,10.70
2018-12-03T19:07:12.341Z,10.70
2018-12-03T19:09:52.270Z,10.70
2018-12-03T19:12:23.455Z,10.70
2018-12-03T19:14:58.737Z,10.60
2018-12-03T19:17:35.997Z,10.70
2018-12-03T19:20:16.422Z,10.60
2018-12-03T19:22:47.661Z,10.60
2018-12-03T19:25:27.506Z,10.50
2018-12-03T19:28:07.471Z,10.60
2018-12-03T19:30:47.538Z,10.60
2018-12-03T19:33:28.570Z,10.50
2018-12-03T19:36:00.897Z,10.50
2018-12-03T19:38:34.318Z,10.40
2018-12-03T19:41:14.905Z,10.40
2018-12-03T19:43:45.976Z,10.30
2018-12-03T19:46:17.634Z,10.30
2018-12-03T19:48:58.015Z,10.40
2018-12-03T19:51:30.221Z,10.40
2018-12-03T19:54:10.347Z,10.50
2018-12-03T19:56:41.741Z,10.50
2018-12-03T19:59:13.638Z,10.40
2018-12-03T20:01:53.755Z,10.40
2018-12-03T20:04:39.069Z,10.40
2018-12-03T20:07:09.725Z,10.30
2018-12-03T20:12:45.237Z,10.30
2018-12-03T20:35:06.954Z,10.10
2018-12-03T20:38:14.573Z,10.00
2018-12-03T20:44:08.208Z,10.00
2018-12-03T20:46:48.013Z,9.90
2018-12-03T20:49:36.420Z,10.10
2018-12-03T20:52:18.085Z,10.10
2018-12-03T20:54:58.209Z,10.10
2018-12-03T20:57:30.165Z,10.10
2018-12-03T21:00:10.495Z,10.00
2018-12-03T21:02:43.974Z,10.00
2018-12-03T21:05:24.282Z,9.90
2018-12-03T21:08:12.487Z,9.90
2018-12-03T21:11:02.909Z,9.90
2018-12-03T21:13:34.452Z,10.00
2018-12-03T21:16:07.176Z,10.00
2018-12-03T21:18:47.415Z,10.00
2018-12-03T21:21:25.149Z,10.00
2018-12-03T21:23:58.599Z,10.10
2018-12-03T21:26:30.040Z,10.10
2018-12-03T21:29:09.853Z,10.10
2018-12-03T21:31:41.701Z,10.10
2018-12-03T21:34:12.068Z,10.20
2018-12-03T21:36:45.848Z,10.10
2018-12-03T21:39:17.639Z,10.00
2018-12-03T21:41:57.516Z,10.00
2018-12-03T21:44:31.105Z,10.00
2018-12-03T21:47:02.063Z,10.00
2018-12-03T21:52:33.766Z,10.00
2018-12-03T21:55:14.662Z,10.20
2018-12-03T21:57:48.412Z,10.20
2018-12-03T22:00:22.651Z,10.30
2018-12-03T22:02:56.552Z,10.20
2018-12-03T22:05:28.009Z,10.20
2018-12-03T22:08:05.489Z,10.20
2018-12-03T22:10:46.967Z,10.30
2018-12-03T22:13:20.706Z,10.20
2018-12-03T22:15:54.571Z,10.20
2018-12-03T22:18:32.466Z,10.30
2018-12-03T22:21:19.295Z,10.30
2018-12-03T22:26:47.091Z,10.20
2018-12-03T22:29:26.840Z,10.20
2018-12-03T22:32:13.349Z,10.20
2018-12-03T22:37:26.826Z,10.20
2018-12-03T22:39:58.375Z,10.10
2018-12-03T22:42:39.316Z,10.10
2018-12-03T22:45:12.858Z,10.20
2018-12-03T22:47:43.481Z,10.10
2018-12-03T22:53:17.743Z,10.00
2018-12-03T22:55:49.086Z,10.10
2018-12-03T22:58:19.871Z,10.00
2018-12-03T23:01:06.459Z,10.10
2018-12-03T23:03:40.351Z,10.20
2018-12-03T23:06:11.854Z,10.00
2018-12-03T23:08:52.892Z,10.10
2018-12-03T23:11:26.055Z,10.10
2018-12-03T23:14:06.354Z,10.00
2018-12-03T23:16:40.398Z,10.10
2018-12-03T23:19:16.436Z,10.10
2018-12-03T23:24:48.711Z,10.00
2018-12-03T23:27:22.215Z,10.10
2018-12-03T23:29:53.578Z,10.00
2018-12-03T23:32:41.210Z,10.00
2018-12-03T23:35:21.555Z,10.00
2018-12-03T23:41:02.376Z,10.00
2018-12-03T23:43:36.562Z,9.90
2018-12-03T23:46:07.507Z,10.00
2018-12-03T23:48:47.928Z,10.00
2018-12-03T23:51:39.014Z,10.10
2018-12-03T23:54:11.006Z,10.00
2018-12-03T23:56:42.399Z,9.90
2018-12-03T23:59:13.990Z,10.10
